createdAt,value
2022-08-07T00:02:37.931Z,5.50
2022-08-07T00:07:29.291Z,5.50
2022-08-07T00:12:57.896Z,7.43
2022-08-07T00:18:03.977Z,9.53
2022-08-07T00:23:08.062Z,3.47
2022-08-07T00:28:11.491Z,2.80
2022-08-07T00:33:14.256Z,2.30
2022-08-07T00:38:16.862Z,2.00
2022-08-07T00:44:00.229Z,1.93
2022-08-07T00:49:02.183Z,1.90
2022-08-07T00:54:05.575Z,2.03
2022-08-07T00:59:08.041Z,2.37
2022-08-07T01:04:10.893Z,2.27
2022-08-07T01:09:51.185Z,2.50
2022-08-07T01:14:47.572Z,2.73
2022-08-07T01:20:07.961Z,2.70
2022-08-07T01:25:40.037Z,2.93
2022-08-07T01:30:37.842Z,2.30
2022-08-07T01:35:53.281Z,2.30
2022-08-07T01:41:02.099Z,2.13
2022-08-07T01:46:05.739Z,2.00
2022-08-07T01:52:01.192Z,1.60
2022-08-07T01:57:05.552Z,1.80
2022-08-07T02:03:05.631Z,1.53
2022-08-07T02:07:51.644Z,1.77
2022-08-07T02:13:07.892Z,1.90
2022-08-07T02:18:25.869Z,1.83
2022-08-07T02:23:30.139Z,1.77
2022-08-07T02:28:39.667Z,1.70
2022-08-07T02:34:01.936Z,2.13
2022-08-07T02:39:16.970Z,2.33
2022-08-07T02:44:36.600Z,2.67
2022-08-07T02:49:57.727Z,2.30
2022-08-07T02:55:27.919Z,2.30
2022-08-07T03:00:47.025Z,2.30
2022-08-07T03:05:56.316Z,2.50
2022-08-07T03:11:00.209Z,2.87
2022-08-07T03:16:09.550Z,2.80
2022-08-07T03:21:12.615Z,2.83
2022-08-07T03:26:25.274Z,3.20
2022-08-07T03:31:43.082Z,2.67
2022-08-07T03:36:53.783Z,2.40
2022-08-07T03:41:58.587Z,2.57
2022-08-07T03:47:13.306Z,2.50
2022-08-07T03:52:26.572Z,2.57
2022-08-07T03:58:34.862Z,2.57
2022-08-07T04:02:56.965Z,2.50
2022-08-07T04:08:10.021Z,3.40
2022-08-07T04:13:15.730Z,2.53
2022-08-07T04:18:57.183Z,2.90
2022-08-07T04:24:05.957Z,2.33
2022-08-07T04:29:11.944Z,2.50
2022-08-07T04:34:24.094Z,2.40
2022-08-07T04:39:35.668Z,2.90
2022-08-07T04:44:54.349Z,3.07
2022-08-07T04:50:30.258Z,3.70
2022-08-07T04:58:16.265Z,3.37
2022-08-07T05:01:30.898Z,3.47
2022-08-07T05:06:51.509Z,3.77
2022-08-07T05:12:02.587Z,3.07
2022-08-07T05:17:12.220Z,3.27
2022-08-07T05:22:27.642Z,2.80
2022-08-07T05:28:03.358Z,2.90
2022-08-07T05:33:02.550Z,3.40
2022-08-07T05:38:08.367Z,2.67
2022-08-07T05:43:13.619Z,2.40
2022-08-07T05:48:20.262Z,2.30
2022-08-07T05:54:08.500Z,2.60
2022-08-07T05:58:53.977Z,2.17
2022-08-07T06:04:01.522Z,1.93
2022-08-07T06:09:12.453Z,1.57
2022-08-07T06:14:20.896Z,1.40
2022-08-07T06:19:49.954Z,1.43
2022-08-07T06:24:58.423Z,1.50
2022-08-07T06:30:04.766Z,1.47
2022-08-07T06:35:10.539Z,1.80
2022-08-07T06:40:21.534Z,1.48
2022-08-07T06:45:28.582Z,1.65
2022-08-07T06:50:39.509Z,1.60
2022-08-07T06:55:53.691Z,1.40
2022-08-07T07:01:06.636Z,1.10
2022-08-07T07:06:11.445Z,1.48
2022-08-07T07:12:06.728Z,1.02
2022-08-07T07:16:49.806Z,1.73
2022-08-07T07:22:04.633Z,1.92
2022-08-07T07:27:18.565Z,1.70
2022-08-07T07:32:25.336Z,2.08
2022-08-07T07:37:47.228Z,1.60
2022-08-07T07:42:55.862Z,1.25
2022-08-07T07:48:00.685Z,1.55
2022-08-07T07:53:03.951Z,1.40
2022-08-07T07:58:07.220Z,1.60
2022-08-07T08:04:06.183Z,1.70
2022-08-07T08:08:42.175Z,1.50
2022-08-07T08:13:54.070Z,2.00
2022-08-07T08:19:18.215Z,1.98
2022-08-07T08:24:45.456Z,1.80
2022-08-07T08:29:56.349Z,1.75
2022-08-07T08:35:01.666Z,2.53
2022-08-07T08:40:16.277Z,1.98
2022-08-07T08:46:00.683Z,1.83
2022-08-07T08:51:49.443Z,1.92
2022-08-07T08:56:52.487Z,1.73
2022-08-07T09:02:09.003Z,1.60
2022-08-07T09:07:46.245Z,2.38
2022-08-07T09:13:36.820Z,1.85
2022-08-07T09:18:58.829Z,1.70
2022-08-07T09:24:32.816Z,1.90
2022-08-07T09:30:05.475Z,1.60
2022-08-07T09:36:03.370Z,2.00
2022-08-07T09:41:27.736Z,1.45
2022-08-07T09:47:42.522Z,1.65
2022-08-07T09:53:07.347Z,1.60
2022-08-07T09:58:32.439Z,1.63
2022-08-07T10:04:05.163Z,1.42
2022-08-07T10:09:34.340Z,1.60
2022-08-07T10:15:00.221Z,1.77
2022-08-07T10:20:39.420Z,1.48
2022-08-07T10:26:15.967Z,1.63
2022-08-07T10:32:00.288Z,1.35
2022-08-07T10:38:21.211Z,1.67
2022-08-07T10:43:19.457Z,1.15
2022-08-07T10:49:00.103Z,1.40
2022-08-07T10:54:41.690Z,1.38
2022-08-07T11:00:02.024Z,1.25
2022-08-07T11:05:35.962Z,1.50
2022-08-07T11:11:20.855Z,1.65
2022-08-07T11:16:30.738Z,1.40
2022-08-07T11:21:45.199Z,2.17
2022-08-07T11:27:13.436Z,1.85
2022-08-07T11:32:26.214Z,1.77
2022-08-07T11:38:10.359Z,2.88
2022-08-07T11:43:41.526Z,1.20
2022-08-07T11:49:50.217Z,1.40
2022-08-07T11:54:39.213Z,1.42
2022-08-07T12:00:11.749Z,1.67
2022-08-07T12:05:49.285Z,1.60
2022-08-07T12:11:20.140Z,1.58
2022-08-07T12:16:31.731Z,13.27
2022-08-07T12:22:39.247Z,9.70
2022-08-07T12:28:08.640Z,1.90
2022-08-07T12:33:23.432Z,1.70
2022-08-07T12:38:43.226Z,1.40
2022-08-07T12:44:03.904Z,1.30
2022-08-07T12:49:44.174Z,1.30
2022-08-07T12:55:09.506Z,1.58
2022-08-07T13:00:32.627Z,1.52
2022-08-07T13:06:17.198Z,1.55
2022-08-07T13:12:02.267Z,1.65
2022-08-07T13:17:40.662Z,1.85
2022-08-07T13:23:03.794Z,2.00
2022-08-07T13:28:24.251Z,1.60
2022-08-07T13:34:30.447Z,1.40
2022-08-07T13:40:35.914Z,1.33
2022-08-07T13:46:24.850Z,1.77
2022-08-07T13:52:22.222Z,1.63
2022-08-07T13:56:59.605Z,1.85
2022-08-07T14:02:10.371Z,1.40
2022-08-07T14:07:14.078Z,1.60
2022-08-07T14:12:54.733Z,1.80
2022-08-07T14:18:56.948Z,1.70
2022-08-07T14:24:15.984Z,1.17
2022-08-07T14:30:02.829Z,1.40
2022-08-07T14:34:55.248Z,1.40
2022-08-07T14:40:18.278Z,1.55
2022-08-07T14:45:22.682Z,1.60
2022-08-07T14:50:28.854Z,1.42
2022-08-07T14:55:35.356Z,1.30
2022-08-07T15:01:42.859Z,1.45
2022-08-07T15:07:17.539Z,1.58
2022-08-07T15:12:30.527Z,2.25
2022-08-07T15:23:20.094Z,1.50
2022-08-07T15:28:34.885Z,1.60
2022-08-07T15:33:42.833Z,1.40
2022-08-07T15:38:51.424Z,1.17
2022-08-07T15:44:07.113Z,1.80
2022-08-07T15:49:16.272Z,1.17
2022-08-07T15:54:18.921Z,1.52
2022-08-07T15:59:39.557Z,1.67
2022-08-07T16:04:46.606Z,3.50
2022-08-07T16:09:57.142Z,1.85
2022-08-07T16:15:05.892Z,2.25
2022-08-07T16:20:56.767Z,2.10
2022-08-07T16:26:31.184Z,1.35
2022-08-07T16:31:51.922Z,1.60
2022-08-07T16:38:04.632Z,1.88
2022-08-07T16:43:03.431Z,1.40
2022-08-07T16:50:20.720Z,1.50
2022-08-07T16:54:54.158Z,1.77
2022-08-07T17:00:06.941Z,1.15
2022-08-07T17:06:02.248Z,1.20
2022-08-07T17:10:54.406Z,1.48
2022-08-07T17:16:15.434Z,1.55
2022-08-07T17:21:51.711Z,1.70
2022-08-07T17:27:02.496Z,1.20
2022-08-07T17:32:31.230Z,1.33
2022-08-07T17:38:06.665Z,1.38
2022-08-07T17:44:01.453Z,1.40
2022-08-07T17:49:01.897Z,1.40
2022-08-07T17:54:53.920Z,1.67
2022-08-07T18:00:02.263Z,2.40
2022-08-07T18:05:24.985Z,1.55
2022-08-07T18:12:06.953Z,11.88
2022-08-07T18:16:31.179Z,3.63
2022-08-07T18:21:55.043Z,2.30
2022-08-07T18:27:38.232Z,5.88
2022-08-07T18:33:19.347Z,22.20
2022-08-07T18:38:55.945Z,9.57
2022-08-07T18:44:08.577Z,5.97
2022-08-07T18:50:33.055Z,3.00
2022-08-07T18:55:40.504Z,2.53
2022-08-07T19:00:54.234Z,2.75
2022-08-07T19:06:04.588Z,3.50
2022-08-07T19:11:35.725Z,3.00
2022-08-07T19:17:07.903Z,3.50
2022-08-07T19:22:18.995Z,6.28
2022-08-07T19:28:29.725Z,4.38
2022-08-07T19:33:08.344Z,3.47
2022-08-07T19:38:18.905Z,2.80
2022-08-07T19:43:50.333Z,2.60
2022-08-07T19:48:56.129Z,4.20
2022-08-07T19:54:34.344Z,3.73
2022-08-07T19:59:39.865Z,3.90
2022-08-07T20:04:49.463Z,4.30
2022-08-07T20:10:38.042Z,6.90
2022-08-07T20:15:22.416Z,5.80
2022-08-07T20:20:29.598Z,5.00
2022-08-07T20:25:33.540Z,4.07
2022-08-07T20:30:46.836Z,4.00
2022-08-07T20:35:54.276Z,5.30
2022-08-07T20:41:05.750Z,5.30
2022-08-07T20:46:24.985Z,4.80
2022-08-07T20:51:35.965Z,4.67
2022-08-07T20:56:48.430Z,4.73
2022-08-07T21:01:58.167Z,5.73
2022-08-07T21:07:03.938Z,6.43
2022-08-07T21:12:26.126Z,6.30
2022-08-07T21:18:09.003Z,7.27
2022-08-07T21:23:08.267Z,6.43
2022-08-07T21:28:19.087Z,6.60
2022-08-07T21:33:48.733Z,6.27
2022-08-07T21:39:46.056Z,6.43
2022-08-07T21:44:56.536Z,6.33
2022-08-07T21:50:16.775Z,5.60
2022-08-07T21:55:29.793Z,5.40
2022-08-07T22:00:33.224Z,6.03
2022-08-07T22:05:51.417Z,5.30
2022-08-07T22:11:02.640Z,5.17
2022-08-07T22:16:43.937Z,4.80
2022-08-07T22:22:05.343Z,3.80
2022-08-07T22:27:18.634Z,4.33
2022-08-07T22:32:35.278Z,3.63
2022-08-07T22:38:02.932Z,3.80
2022-08-07T22:43:23.484Z,3.93
2022-08-07T22:48:55.217Z,4.07
2022-08-07T22:54:37.934Z,3.43
2022-08-07T22:59:57.553Z,4.57
2022-08-07T23:06:10.186Z,3.63
2022-08-07T23:11:23.929Z,4.00
2022-08-07T23:16:54.701Z,4.10
2022-08-07T23:22:13.074Z,4.27
2022-08-07T23:27:35.335Z,3.97
2022-08-07T23:34:23.416Z,4.00
2022-08-07T23:38:54.523Z,4.10
2022-08-07T23:44:12.559Z,4.80
2022-08-07T23:49:50.476Z,3.80
2022-08-07T23:55:12.826Z,3.13
